Time;durP1;ratioP1;P1;durP2;ratioP2;P2;SDS_P1;SDS_P2;PMS_P1;PMS_P2;Temp;Humidity;BMP_temperature;BMP_pressure;BME280_temperature;BME280_humidity;BME280_pressure;Samples;Min_cycle;Max_cycle;Signal;HPM_P1;HPM_P2
2024/03/12 00:01:39;;;;;;;7.05;4.47;;;9.60;89.40;;;;;;5070610;28;20025;-65
2024/03/12 00:04:08;;;;;;;8.13;4.97;;;9.60;89.40;;;;;;5071472;28;20383;-66
2024/03/12 00:06:35;;;;;;;10.45;5.60;;;9.60;89.50;;;;;;5071158;28;20048;-66
2024/03/12 00:09:01;;;;;;;9.45;5.13;;;9.60;89.60;;;;;;5073762;28;20021;-67
2024/03/12 00:11:26;;;;;;;8.75;5.35;;;9.50;89.60;;;;;;5070733;28;20096;-66
2024/03/12 00:13:52;;;;;;;8.38;4.78;;;9.60;89.60;;;;;;5072653;28;20044;-66
2024/03/12 00:16:17;;;;;;;8.55;5.00;;;9.60;89.60;;;;;;5071448;28;20074;-66
2024/03/12 00:18:43;;;;;;;9.77;5.05;;;9.60;89.60;;;;;;5071896;28;20036;-67
2024/03/12 00:21:09;;;;;;;8.45;5.05;;;9.60;89.70;;;;;;5069539;28;20028;-67
2024/03/12 00:23:34;;;;;;;10.00;5.60;;;9.60;89.70;;;;;;5070075;28;20098;-66
2024/03/12 00:26:00;;;;;;;8.95;5.07;;;9.60;89.70;;;;;;5074383;28;20025;-64
2024/03/12 00:28:26;;;;;;;8.07;5.10;;;9.60;89.60;;;;;;5071695;28;20040;-67
2024/03/12 00:30:53;;;;;;;8.02;4.78;;;9.60;89.70;;;;;;5075325;28;20063;-66
2024/03/12 00:33:20;;;;;;;8.40;4.88;;;9.60;89.70;;;;;;5068094;28;20074;-65
2024/03/12 00:35:46;;;;;;;7.07;4.55;;;9.60;89.70;;;;;;5068232;28;20017;-66
2024/03/12 00:38:12;;;;;;;8.05;5.05;;;9.60;89.70;;;;;;5066457;28;20035;-66
2024/03/12 00:40:38;;;;;;;8.60;5.20;;;9.70;89.70;;;;;;5073875;28;20024;-67
2024/03/12 00:43:08;;;;;;;8.63;5.43;;;9.70;89.60;;;;;;5069748;28;20116;-66
2024/03/12 00:45:37;;;;;;;8.88;5.43;;;9.70;89.50;;;;;;5069369;28;20043;-64
2024/03/12 00:48:03;;;;;;;8.23;5.20;;;9.80;89.40;;;;;;5070724;28;20025;-66
2024/03/12 00:50:29;;;;;;;8.27;5.03;;;9.70;89.40;;;;;;5068369;28;20013;-64
2024/03/12 00:52:55;;;;;;;9.13;5.22;;;9.70;89.40;;;;;;5068454;28;20039;-66
2024/03/12 00:55:21;;;;;;;9.73;5.22;;;9.70;89.50;;;;;;5065948;28;20021;-64
2024/03/12 00:57:50;;;;;;;9.00;5.47;;;9.70;89.50;;;;;;5072310;28;20028;-65
2024/03/12 01:00:17;;;;;;;9.70;5.13;;;9.70;89.60;;;;;;5071260;28;20021;-64
2024/03/12 01:02:49;;;;;;;7.80;5.00;;;9.70;89.50;;;;;;5075678;28;20035;-65
2024/03/12 01:05:20;;;;;;;8.25;5.03;;;9.70;89.60;;;;;;5071065;28;20620;-65
2024/03/12 01:07:48;;;;;;;7.57;4.90;;;9.70;89.70;;;;;;5073672;28;20051;-66
2024/03/12 01:10:20;;;;;;;9.18;5.45;;;9.70;89.70;;;;;;5071394;28;20033;-64
2024/03/12 01:12:49;;;;;;;7.35;4.45;;;9.70;89.70;;;;;;5074453;28;21513;-66
2024/03/12 01:15:15;;;;;;;9.70;5.43;;;9.70;89.70;;;;;;5069973;28;20124;-66
2024/03/12 01:17:42;;;;;;;8.77;5.15;;;9.70;89.70;;;;;;5073880;28;20443;-64
2024/03/12 01:20:09;;;;;;;9.30;5.70;;;9.70;89.80;;;;;;5072127;28;20039;-65
2024/03/12 01:22:38;;;;;;;8.80;5.20;;;9.70;89.70;;;;;;5072360;28;20028;-65
2024/03/12 01:25:08;;;;;;;8.45;5.05;;;9.70;89.80;;;;;;5070475;28;20025;-66
2024/03/12 01:27:34;;;;;;;8.38;5.30;;;9.70;89.70;;;;;;5066787;28;20033;-66
2024/03/12 01:30:07;;;;;;;7.97;4.68;;;9.70;89.70;;;;;;5067614;28;21379;-66
2024/03/12 01:32:34;;;;;;;9.65;6.05;;;9.70;89.90;;;;;;5069787;28;20025;-66
2024/03/12 01:35:00;;;;;;;8.85;5.47;;;9.60;89.90;;;;;;5071078;28;20013;-67
2024/03/12 01:37:25;;;;;;;10.30;5.80;;;9.60;90.00;;;;;;5065454;28;20054;-66
2024/03/12 01:39:54;;;;;;;10.70;5.68;;;9.60;90.00;;;;;;5068082;28;20064;-66
2024/03/12 01:42:23;;;;;;;12.25;6.30;;;9.60;89.90;;;;;;5070475;28;20036;-66
2024/03/12 01:44:51;;;;;;;9.90;5.40;;;9.60;90.00;;;;;;5067201;28;20035;-66
2024/03/12 01:47:18;;;;;;;9.82;5.53;;;9.70;90.00;;;;;;5068764;28;20037;-66
2024/03/12 01:49:48;;;;;;;8.27;5.45;;;9.70;90.00;;;;;;5062970;28;20028;-66
2024/03/12 01:52:20;;;;;;;10.05;5.60;;;9.60;90.00;;;;;;5069630;28;20028;-66
2024/03/12 01:54:45;;;;;;;10.07;6.00;;;9.60;90.00;;;;;;5073134;28;20541;-67
2024/03/12 01:57:11;;;;;;;10.68;6.00;;;9.60;90.00;;;;;;5073968;28;20023;-67
2024/03/12 01:59:37;;;;;;;10.20;5.97;;;9.70;90.10;;;;;;5070563;28;20025;-66
2024/03/12 02:02:03;;;;;;;11.35;6.35;;;9.60;90.00;;;;;;5069297;28;20539;-65
2024/03/12 02:04:28;;;;;;;13.32;7.03;;;9.60;90.00;;;;;;5070737;28;20099;-66
2024/03/12 02:06:54;;;;;;;11.07;6.13;;;9.60;90.10;;;;;;5066101;28;20024;-64
2024/03/12 02:09:21;;;;;;;10.15;5.80;;;9.60;90.10;;;;;;5066764;28;20056;-66
2024/03/12 02:11:47;;;;;;;15.65;8.35;;;9.60;90.10;;;;;;5067451;28;20016;-66
2024/03/12 02:14:16;;;;;;;12.52;6.43;;;9.60;90.10;;;;;;5069340;28;20016;-66
2024/03/12 02:16:42;;;;;;;15.20;7.47;;;9.60;90.10;;;;;;5066457;28;20410;-66
2024/03/12 02:19:08;;;;;;;12.80;6.90;;;9.60;90.10;;;;;;5068777;28;20020;-66
2024/03/12 02:21:34;;;;;;;15.00;7.70;;;9.50;90.10;;;;;;5065143;28;20509;-65
2024/03/12 02:24:00;;;;;;;17.23;8.65;;;9.50;90.10;;;;;;5068139;28;20029;-65
2024/03/12 02:26:25;;;;;;;14.13;6.55;;;9.50;90.10;;;;;;5064855;28;20019;-66
2024/03/12 02:28:51;;;;;;;14.48;6.95;;;9.50;90.20;;;;;;5066545;28;20058;-66
2024/03/12 02:31:17;;;;;;;21.02;10.35;;;9.40;90.30;;;;;;5070432;28;20025;-64
2024/03/12 02:33:42;;;;;;;20.10;9.95;;;9.40;90.30;;;;;;5069033;28;20025;-65
2024/03/12 02:36:09;;;;;;;19.52;9.52;;;9.40;90.40;;;;;;5069293;28;20051;-66
2024/03/12 02:38:38;;;;;;;16.20;7.82;;;9.40;90.30;;;;;;5069747;28;20021;-64
2024/03/12 02:41:07;;;;;;;13.70;6.75;;;9.40;90.30;;;;;;5065206;28;20016;-65
2024/03/12 02:43:33;;;;;;;12.38;5.55;;;9.40;90.30;;;;;;5067858;28;20028;-64
2024/03/12 02:45:59;;;;;;;15.10;7.20;;;9.40;90.40;;;;;;5070786;28;20107;-66
2024/03/12 02:48:27;;;;;;;16.40;8.20;;;9.40;90.40;;;;;;5065205;28;20095;-63
2024/03/12 02:50:53;;;;;;;14.98;7.95;;;9.40;90.40;;;;;;5069559;28;20383;-64
2024/03/12 02:53:18;;;;;;;17.27;8.10;;;9.40;90.50;;;;;;5069159;28;20025;-65
2024/03/12 02:55:44;;;;;;;12.57;6.70;;;9.40;90.40;;;;;;5067901;28;20028;-65
2024/03/12 02:58:10;;;;;;;15.23;7.15;;;9.40;90.40;;;;;;5067503;28;20519;-65
2024/03/12 03:00:36;;;;;;;12.23;6.47;;;9.40;90.50;;;;;;5063690;28;20032;-65
2024/03/12 03:03:02;;;;;;;13.18;6.70;;;9.40;90.50;;;;;;5068473;28;20032;-64
2024/03/12 03:05:28;;;;;;;11.70;5.95;;;9.40;90.50;;;;;;5065119;28;20078;-65
2024/03/12 03:07:54;;;;;;;11.23;6.43;;;9.40;90.50;;;;;;5068204;28;20025;-65
2024/03/12 03:10:20;;;;;;;10.57;5.25;;;9.40;90.50;;;;;;5067745;28;20067;-65
2024/03/12 03:12:46;;;;;;;14.63;7.53;;;9.40;90.50;;;;;;5071294;28;20453;-64
2024/03/12 03:15:11;;;;;;;14.48;6.63;;;9.40;90.50;;;;;;5071014;28;20952;-63
2024/03/12 03:17:42;;;;;;;14.20;6.80;;;9.40;90.50;;;;;;5068176;28;20059;-63
2024/03/12 03:20:12;;;;;;;18.35;9.23;;;9.40;90.50;;;;;;5066645;28;20482;-65
2024/03/12 03:22:41;;;;;;;15.60;7.75;;;9.40;90.50;;;;;;5069779;28;20085;-66
2024/03/12 03:25:08;;;;;;;13.30;6.72;;;9.40;90.50;;;;;;5065926;28;20025;-65
2024/03/12 03:27:34;;;;;;;11.95;6.68;;;9.40;90.50;;;;;;5072012;28;20033;-66
2024/03/12 03:30:00;;;;;;;12.13;6.40;;;9.40;90.50;;;;;;5071661;28;20141;-64
2024/03/12 03:32:25;;;;;;;11.35;6.05;;;9.40;90.50;;;;;;5067913;28;20391;-66
2024/03/12 03:34:52;;;;;;;9.45;5.30;;;9.40;90.50;;;;;;5076352;28;20119;-65
2024/03/12 03:37:20;;;;;;;8.82;5.13;;;9.40;90.60;;;;;;5067761;28;20040;-64
2024/03/12 03:39:47;;;;;;;8.55;5.10;;;9.50;90.60;;;;;;5072951;28;20162;-64
2024/03/12 03:42:12;;;;;;;9.70;4.40;;;9.40;90.60;;;;;;5068696;28;20479;-65
2024/03/12 03:44:38;;;;;;;7.47;4.55;;;9.40;90.60;;;;;;5068654;28;20039;-65
2024/03/12 03:47:04;;;;;;;9.05;4.75;;;9.40;90.60;;;;;;5072293;28;20032;-63
2024/03/12 03:49:30;;;;;;;8.40;4.78;;;9.40;90.60;;;;;;5070032;28;20086;-66
2024/03/12 03:51:55;;;;;;;8.55;3.95;;;9.40;90.70;;;;;;5100577;28;21171;-66
2024/03/12 03:54:21;;;;;;;8.10;4.50;;;9.40;90.70;;;;;;5074769;28;20601;-66
2024/03/12 03:56:47;;;;;;;8.15;4.80;;;9.40;90.80;;;;;;5066314;28;20048;-66
2024/03/12 03:59:15;;;;;;;6.97;4.05;;;9.40;90.80;;;;;;5065328;28;20066;-66
2024/03/12 04:01:41;;;;;;;7.47;4.10;;;9.40;90.80;;;;;;5069553;28;20020;-64
2024/03/12 04:04:15;;;;;;;10.82;6.00;;;9.30;90.80;;;;;;5073392;28;20021;-63
2024/03/12 04:06:44;;;;;;;9.27;5.07;;;9.30;90.90;;;;;;5072156;28;20021;-64
2024/03/12 04:09:10;;;;;;;7.40;4.72;;;9.30;90.90;;;;;;5073720;28;20023;-65
2024/03/12 04:11:36;;;;;;;7.85;4.35;;;9.30;90.90;;;;;;5070455;28;20104;-66
2024/03/12 04:14:02;;;;;;;7.20;4.30;;;9.30;90.80;;;;;;5074505;28;20144;-65
2024/03/12 04:16:30;;;;;;;6.80;4.20;;;9.40;90.90;;;;;;5073364;28;20028;-65
2024/03/12 04:18:58;;;;;;;6.88;3.95;;;9.40;90.90;;;;;;5074633;28;20109;-66
2024/03/12 04:21:27;;;;;;;6.20;3.95;;;9.40;90.80;;;;;;5078627;28;20153;-65
2024/03/12 04:23:53;;;;;;;7.18;4.07;;;9.30;90.80;;;;;;5074194;28;20066;-65
2024/03/12 04:26:19;;;;;;;6.45;4.07;;;9.40;90.90;;;;;;5072545;28;20112;-66
2024/03/12 04:28:45;;;;;;;7.03;3.75;;;9.40;90.90;;;;;;5073473;28;20074;-66
2024/03/12 04:31:11;;;;;;;5.88;3.50;;;9.40;91.20;;;;;;5082475;28;20020;-65
2024/03/12 04:33:36;;;;;;;6.45;3.53;;;9.40;90.90;;;;;;5067646;28;20023;-66
2024/03/12 04:36:03;;;;;;;5.70;3.33;;;9.40;90.90;;;;;;5069820;28;20093;-65
2024/03/12 04:38:32;;;;;;;6.57;3.40;;;9.40;90.90;;;;;;5071554;28;20041;-66
2024/03/12 04:40:58;;;;;;;5.00;3.08;;;9.40;90.90;;;;;;5071327;28;20423;-64
2024/03/12 04:43:24;;;;;;;5.03;3.35;;;9.40;90.90;;;;;;5073525;28;20113;-66
2024/03/12 04:45:49;;;;;;;7.28;3.90;;;9.40;90.90;;;;;;5072510;28;20513;-65
2024/03/12 04:48:15;;;;;;;6.03;4.00;;;9.40;90.90;;;;;;5072848;28;20016;-64
2024/03/12 04:50:40;;;;;;;7.35;4.40;;;9.40;90.90;;;;;;5070148;28;20479;-64
2024/03/12 04:53:07;;;;;;;6.97;4.40;;;9.40;91.00;;;;;;5070692;28;20136;-65
2024/03/12 04:55:39;;;;;;;7.60;4.68;;;9.40;91.00;;;;;;5075865;28;20566;-66
2024/03/12 04:58:04;;;;;;;7.90;4.90;;;9.30;91.00;;;;;;5065802;28;20070;-66
2024/03/12 05:00:30;;;;;;;7.70;4.03;;;9.30;91.00;;;;;;5072692;28;20025;-65
2024/03/12 05:02:56;;;;;;;8.85;4.43;;;9.20;91.00;;;;;;5071326;28;20036;-66
2024/03/12 05:05:23;;;;;;;6.53;4.35;;;9.30;91.10;;;;;;5070206;28;20036;-65
2024/03/12 05:07:50;;;;;;;6.40;3.90;;;9.20;91.00;;;;;;5070093;28;20355;-66
2024/03/12 05:10:16;;;;;;;8.40;4.45;;;9.30;91.00;;;;;;5068911;28;20705;-65
2024/03/12 05:12:42;;;;;;;8.32;4.20;;;9.30;91.10;;;;;;5069445;28;20024;-66
2024/03/12 05:15:09;;;;;;;8.30;4.43;;;9.30;91.10;;;;;;5070240;28;20024;-66
2024/03/12 05:17:39;;;;;;;6.78;3.67;;;9.30;91.40;;;;;;5068268;28;20386;-66
2024/03/12 05:20:18;;;;;;;7.70;3.65;;;9.30;91.10;;;;;;5070967;28;20033;-65
2024/03/12 05:22:47;;;;;;;8.02;4.30;;;9.30;91.10;;;;;;5077945;28;20142;-66
2024/03/12 05:25:22;;;;;;;9.35;4.70;;;9.30;91.10;;;;;;5073608;28;20043;-65
2024/03/12 05:27:51;;;;;;;9.45;5.05;;;9.20;91.20;;;;;;5070128;28;20070;-65
2024/03/12 05:30:20;;;;;;;8.10;4.35;;;9.10;91.20;;;;;;5066892;28;20021;-66
2024/03/12 05:32:48;;;;;;;9.13;4.43;;;9.20;91.30;;;;;;5072985;28;20020;-66
2024/03/12 05:35:20;;;;;;;5.95;3.72;;;9.20;91.30;;;;;;5071602;28;20024;-62
2024/03/12 05:38:08;;;;;;;10.30;4.68;;;9.20;91.30;;;;;;5069622;28;20111;-64
2024/03/12 05:40:42;;;;;;;7.10;3.90;;;9.20;91.30;;;;;;5068640;28;20391;-65
2024/03/12 05:48:38;;;;;;;7.43;3.70;;;9.10;91.40;;;;;;5078556;28;20051;-65
2024/03/12 05:51:04;;;;;;;7.80;4.28;;;9.10;91.40;;;;;;5068584;28;20408;-65
2024/03/12 05:53:30;;;;;;;10.00;4.93;;;9.10;91.30;;;;;;5066786;28;20028;-64
2024/03/12 05:55:55;;;;;;;10.30;4.82;;;9.10;91.30;;;;;;5069515;28;20025;-66
2024/03/12 05:58:21;;;;;;;8.52;4.70;;;9.10;91.40;;;;;;5067665;28;20120;-65
2024/03/12 06:00:48;;;;;;;9.13;4.53;;;9.10;91.40;;;;;;5069814;28;20036;-64
2024/03/12 06:03:14;;;;;;;9.50;4.88;;;9.10;91.40;;;;;;5064969;28;20036;-66
2024/03/12 06:05:41;;;;;;;8.63;4.32;;;9.00;91.40;;;;;;5068357;28;20029;-62
2024/03/12 06:08:07;;;;;;;9.25;4.50;;;9.00;91.70;;;;;;5072504;28;20032;-64
2024/03/12 06:10:32;;;;;;;10.43;4.93;;;9.00;91.50;;;;;;5067920;28;20024;-66
2024/03/12 06:12:58;;;;;;;9.05;4.07;;;9.00;91.50;;;;;;5070025;28;20016;-66
2024/03/12 06:15:23;;;;;;;6.57;4.10;;;9.00;91.50;;;;;;5066179;28;20025;-65
2024/03/12 06:17:49;;;;;;;11.23;5.28;;;9.10;91.50;;;;;;5073310;28;20101;-66
2024/03/12 06:20:15;;;;;;;13.27;5.50;;;9.00;91.50;;;;;;5067641;28;20025;-67
2024/03/12 06:22:44;;;;;;;13.60;6.30;;;9.00;91.50;;;;;;5070174;28;20596;-65
2024/03/12 06:25:10;;;;;;;14.85;6.28;;;8.90;91.50;;;;;;5071609;28;20117;-67
2024/03/12 06:27:38;;;;;;;13.20;6.10;;;8.90;91.90;;;;;;5069816;28;20499;-65
2024/03/12 06:30:05;;;;;;;16.92;7.00;;;8.90;91.70;;;;;;5068366;28;20074;-66
2024/03/12 06:32:32;;;;;;;13.98;6.10;;;8.80;91.60;;;;;;5067374;28;20029;-65
2024/03/12 06:34:57;;;;;;;14.77;6.40;;;8.80;91.70;;;;;;5070045;28;20107;-64
2024/03/12 06:37:25;;;;;;;11.90;5.55;;;8.80;91.70;;;;;;5073037;28;20550;-65
2024/03/12 06:39:53;;;;;;;9.43;4.70;;;8.80;91.70;;;;;;5067755;28;20020;-67
2024/03/12 06:42:25;;;;;;;11.52;5.90;;;8.90;91.70;;;;;;5076398;28;20020;-66
2024/03/12 06:44:52;;;;;;;11.52;4.63;;;8.90;91.70;;;;;;5074348;28;20027;-65
2024/03/12 06:47:19;;;;;;;10.05;4.93;;;8.90;91.70;;;;;;5075011;28;20108;-66
2024/03/12 06:49:45;;;;;;;7.68;4.00;;;8.90;91.70;;;;;;5066682;28;20043;-66
2024/03/12 06:52:15;;;;;;;7.55;3.78;;;8.90;91.60;;;;;;5079670;28;20027;-64
2024/03/12 06:54:41;;;;;;;9.18;4.60;;;9.00;91.70;;;;;;5071935;28;20178;-66
2024/03/12 06:57:07;;;;;;;10.23;5.00;;;9.00;91.70;;;;;;5065729;28;20021;-65
2024/03/12 06:59:33;;;;;;;11.15;4.47;;;8.90;91.70;;;;;;5072183;28;20109;-66
2024/03/12 07:02:02;;;;;;;10.27;4.80;;;8.90;91.70;;;;;;5065939;28;20249;-66
2024/03/12 07:04:44;;;;;;;9.68;5.00;;;8.90;91.80;;;;;;5068004;28;20108;-65
2024/03/12 07:07:11;;;;;;;11.55;5.45;;;8.90;91.80;;;;;;5067058;28;20270;-65
2024/03/12 07:09:41;;;;;;;11.98;5.55;;;8.90;91.80;;;;;;5068356;28;20013;-65
2024/03/12 07:12:08;;;;;;;9.95;5.28;;;8.80;91.80;;;;;;5059668;28;20016;-64
2024/03/12 07:14:42;;;;;;;7.97;4.32;;;8.90;91.90;;;;;;5066360;28;20013;-65
2024/03/12 07:17:14;;;;;;;10.20;5.18;;;8.90;91.90;;;;;;5069275;28;20048;-67
2024/03/12 07:19:40;;;;;;;15.30;6.20;;;8.80;91.90;;;;;;5067609;28;20086;-68
2024/03/12 07:22:07;;;;;;;14.48;6.05;;;8.90;91.90;;;;;;5070267;28;20398;-67
2024/03/12 07:24:34;;;;;;;8.63;4.85;;;8.90;91.90;;;;;;5064833;28;20017;-65
2024/03/12 07:27:07;;;;;;;11.63;5.45;;;8.90;91.90;;;;;;5067354;28;20051;-65
2024/03/12 07:29:33;;;;;;;9.65;5.18;;;8.90;91.90;;;;;;5066929;28;20520;-67
2024/03/12 07:32:03;;;;;;;10.32;4.80;;;8.90;91.80;;;;;;5071712;28;20019;-65
2024/03/12 07:34:32;;;;;;;10.25;5.03;;;9.00;91.90;;;;;;5070367;28;20392;-63
2024/03/12 07:36:59;;;;;;;10.13;5.18;;;9.00;91.80;;;;;;5075341;28;20031;-66
2024/03/12 07:39:25;;;;;;;9.02;4.85;;;9.00;91.80;;;;;;5072236;28;20024;-66
2024/03/12 07:41:55;;;;;;;11.95;5.95;;;9.00;91.80;;;;;;5067407;28;20103;-66
2024/03/12 07:44:22;;;;;;;13.52;5.65;;;9.00;91.80;;;;;;5071454;28;20703;-67
2024/03/12 07:46:48;;;;;;;12.40;5.55;;;9.00;91.80;;;;;;5070093;28;20028;-67
2024/03/12 07:49:20;;;;;;;8.90;4.13;;;8.90;91.80;;;;;;5076603;28;20032;-66
2024/03/12 07:51:49;;;;;;;10.23;5.45;;;8.90;91.90;;;;;;5081649;28;20106;-67
2024/03/12 07:54:18;;;;;;;13.20;4.80;;;9.00;91.90;;;;;;5073572;28;20036;-66
2024/03/12 07:56:49;;;;;;;7.72;3.72;;;9.00;91.90;;;;;;5105886;27;20016;-64
2024/03/12 07:59:16;;;;;;;9.10;4.25;;;9.00;91.90;;;;;;5072805;28;20028;-66
2024/03/12 08:01:44;;;;;;;12.63;4.80;;;9.00;91.90;;;;;;5075095;28;20370;-66
2024/03/12 08:04:10;;;;;;;11.68;5.13;;;9.00;91.90;;;;;;5077396;28;20020;-67
2024/03/12 08:06:35;;;;;;;10.10;5.20;;;8.90;91.90;;;;;;5082815;28;20161;-66
2024/03/12 08:09:03;;;;;;;9.07;4.35;;;8.90;91.90;;;;;;5072832;28;20024;-66
2024/03/12 08:11:30;;;;;;;8.80;4.20;;;8.90;91.90;;;;;;5071968;28;20024;-67
2024/03/12 08:13:55;;;;;;;8.40;4.50;;;9.00;91.90;;;;;;5074421;28;20443;-66
2024/03/12 08:16:21;;;;;;;10.15;4.97;;;9.10;91.90;;;;;;5076792;28;20020;-72
2024/03/12 08:18:47;;;;;;;9.63;4.03;;;9.10;91.80;;;;;;5074682;28;20060;-66
2024/03/12 08:21:12;;;;;;;8.63;4.10;;;9.10;91.80;;;;;;5078517;28;20024;-68
2024/03/12 08:23:38;;;;;;;8.40;4.68;;;9.10;91.80;;;;;;5076483;28;20525;-67
2024/03/12 08:26:04;;;;;;;11.90;4.60;;;9.10;91.80;;;;;;5072350;28;20029;-65
2024/03/12 08:28:31;;;;;;;10.43;4.75;;;9.20;91.80;;;;;;5074432;28;20055;-66
2024/03/12 08:30:56;;;;;;;9.40;4.53;;;9.10;91.80;;;;;;5079181;28;20488;-66
2024/03/12 08:33:22;;;;;;;8.40;3.95;;;9.10;91.70;;;;;;5070500;28;20016;-66
2024/03/12 08:35:47;;;;;;;7.50;3.85;;;9.20;91.80;;;;;;5082406;28;20028;-65
2024/03/12 08:38:14;;;;;;;10.48;4.25;;;9.20;91.80;;;;;;5071019;28;20031;-67
2024/03/12 08:40:40;;;;;;;7.18;3.72;;;9.20;91.70;;;;;;5074967;28;20031;-66
2024/03/12 08:43:06;;;;;;;9.00;3.78;;;9.20;91.70;;;;;;5072468;28;20387;-65
2024/03/12 08:45:32;;;;;;;7.50;3.45;;;9.20;91.70;;;;;;5072775;28;20050;-66
2024/03/12 08:47:59;;;;;;;8.15;3.80;;;9.20;91.80;;;;;;5070221;28;20449;-66
2024/03/12 08:50:25;;;;;;;7.82;4.18;;;9.20;91.70;;;;;;5075319;28;20021;-67
2024/03/12 08:52:50;;;;;;;9.07;4.15;;;9.20;91.70;;;;;;5072534;28;20027;-65
2024/03/12 08:55:16;;;;;;;8.57;3.97;;;9.20;91.80;;;;;;5077141;28;20382;-67
2024/03/12 08:57:42;;;;;;;8.52;4.30;;;9.20;91.80;;;;;;5072572;28;20616;-64
2024/03/12 09:00:11;;;;;;;6.38;3.47;;;9.20;91.80;;;;;;5074381;28;20095;-66
2024/03/12 09:02:39;;;;;;;8.13;3.60;;;9.20;91.80;;;;;;5078296;28;20029;-67
2024/03/12 09:05:09;;;;;;;8.60;3.63;;;9.30;91.90;;;;;;5070621;28;20025;-67
2024/03/12 09:07:38;;;;;;;6.47;3.58;;;9.20;92.10;;;;;;5070293;28;20027;-66
2024/03/12 09:10:12;;;;;;;8.27;3.50;;;9.30;91.80;;;;;;5072994;28;20105;-67
2024/03/12 09:12:41;;;;;;;6.28;3.60;;;9.30;91.80;;;;;;5079553;28;20095;-67
2024/03/12 09:15:08;;;;;;;6.82;3.67;;;9.30;91.80;;;;;;5079192;28;20035;-66
2024/03/12 09:17:42;;;;;;;7.43;3.67;;;9.30;91.70;;;;;;5083722;28;20043;-67
2024/03/12 09:20:12;;;;;;;6.00;3.35;;;9.40;91.80;;;;;;5083593;28;20127;-67
2024/03/12 09:22:37;;;;;;;9.60;4.18;;;9.40;91.70;;;;;;5070917;28;20032;-67
2024/03/12 09:25:05;;;;;;;7.40;4.40;;;9.30;91.80;;;;;;5070029;28;20041;-64
2024/03/12 09:27:31;;;;;;;8.45;4.18;;;9.30;91.80;;;;;;5071532;28;20020;-67
2024/03/12 09:29:57;;;;;;;8.40;4.75;;;9.30;91.90;;;;;;5078236;28;20025;-64
2024/03/12 09:32:24;;;;;;;7.50;4.13;;;9.30;91.90;;;;;;5078869;28;20020;-67
2024/03/12 09:34:52;;;;;;;7.22;3.70;;;9.30;91.90;;;;;;5078793;28;20085;-67
2024/03/12 09:37:18;;;;;;;9.52;4.25;;;9.30;91.90;;;;;;5071984;28;20116;-66
2024/03/12 09:39:44;;;;;;;7.75;4.22;;;9.30;91.90;;;;;;5072921;28;20115;-66
2024/03/12 09:42:13;;;;;;;8.95;4.68;;;9.40;91.90;;;;;;5072342;28;20490;-67
2024/03/12 09:44:39;;;;;;;7.88;4.00;;;9.40;91.80;;;;;;5073134;28;20087;-66
2024/03/12 09:47:05;;;;;;;6.85;4.13;;;9.40;91.80;;;;;;5072296;28;20036;-67
2024/03/12 09:49:35;;;;;;;7.43;4.68;;;9.50;91.80;;;;;;5070662;28;20458;-67
2024/03/12 09:52:01;;;;;;;9.30;4.90;;;9.50;91.80;;;;;;5084411;28;20039;-67
2024/03/12 09:54:28;;;;;;;12.20;6.10;;;9.40;91.80;;;;;;5076208;28;20066;-67
2024/03/12 09:56:54;;;;;;;9.20;5.18;;;9.40;91.80;;;;;;5072238;28;20108;-66
2024/03/12 09:59:21;;;;;;;7.72;4.28;;;9.40;91.80;;;;;;5079764;28;20402;-67
2024/03/12 10:01:47;;;;;;;6.85;3.80;;;9.40;91.90;;;;;;5070992;28;20092;-67
2024/03/12 10:04:15;;;;;;;7.15;4.20;;;9.50;91.90;;;;;;5070690;28;20051;-66
2024/03/12 10:06:40;;;;;;;8.18;4.28;;;9.50;91.90;;;;;;5076474;28;20065;-67
2024/03/12 10:09:10;;;;;;;7.47;3.90;;;9.50;91.90;;;;;;5073046;28;20036;-66
2024/03/12 10:11:40;;;;;;;7.03;3.97;;;9.50;91.90;;;;;;5069692;28;20012;-66
2024/03/12 10:14:05;;;;;;;9.82;5.13;;;9.50;91.90;;;;;;5069878;28;20069;-66
2024/03/12 10:16:32;;;;;;;10.23;5.45;;;9.40;91.90;;;;;;5070689;28;20585;-67
2024/03/12 10:19:18;;;;;;;9.70;5.30;;;9.30;92.00;;;;;;5070209;28;20020;-67
2024/03/12 10:21:49;;;;;;;7.97;4.60;;;9.30;92.10;;;;;;5073356;28;20029;-66
2024/03/12 10:24:17;;;;;;;9.98;5.53;;;9.20;92.10;;;;;;5070185;28;20159;-67
2024/03/12 10:26:46;;;;;;;7.80;4.28;;;9.30;92.20;;;;;;5078277;28;20053;-68
2024/03/12 10:29:19;;;;;;;8.25;4.30;;;9.30;92.20;;;;;;5072100;28;20024;-65
2024/03/12 10:31:48;;;;;;;6.82;3.55;;;9.40;92.20;;;;;;5071995;28;20032;-67
2024/03/12 10:34:19;;;;;;;6.70;3.50;;;9.40;92.10;;;;;;5067207;28;20558;-65
2024/03/12 10:36:46;;;;;;;6.28;3.72;;;9.40;92.10;;;;;;5068598;28;20103;-66
2024/03/12 10:39:13;;;;;;;6.22;3.90;;;9.50;92.10;;;;;;5071967;28;20436;-67
2024/03/12 10:41:43;;;;;;;6.47;3.75;;;9.50;92.00;;;;;;5076201;28;20032;-67
2024/03/12 10:44:10;;;;;;;10.60;5.07;;;9.60;92.00;;;;;;5071497;28;21423;-65
2024/03/12 10:46:39;;;;;;;7.05;4.32;;;9.60;91.90;;;;;;5073367;28;20030;-67
2024/03/12 10:49:12;;;;;;;7.38;4.00;;;9.70;91.90;;;;;;5071304;28;20548;-67
2024/03/12 10:51:42;;;;;;;6.32;3.83;;;9.80;91.80;;;;;;5074941;28;20091;-67
2024/03/12 10:54:13;;;;;;;7.68;4.20;;;9.80;91.70;;;;;;5073906;28;20384;-67
2024/03/12 10:56:43;;;;;;;8.25;4.47;;;9.80;91.70;;;;;;5068859;28;20020;-67
2024/03/12 10:59:12;;;;;;;7.10;4.10;;;9.90;91.70;;;;;;5077223;28;20036;-67
2024/03/12 11:01:41;;;;;;;8.13;4.75;;;9.90;91.70;;;;;;5069979;28;20097;-67
2024/03/12 11:04:09;;;;;;;6.60;4.05;;;9.90;91.70;;;;;;5071366;28;20039;-66
2024/03/12 11:06:39;;;;;;;7.70;4.07;;;10.00;91.70;;;;;;5068098;28;20082;-67
2024/03/12 11:09:07;;;;;;;7.38;4.60;;;10.10;91.60;;;;;;5075883;28;20501;-65
2024/03/12 11:11:33;;;;;;;8.52;4.57;;;10.00;91.50;;;;;;5075353;28;20103;-67
2024/03/12 11:14:03;;;;;;;7.25;4.47;;;10.10;91.60;;;;;;5070962;28;20551;-67
2024/03/12 11:16:39;;;;;;;8.98;4.60;;;10.10;91.60;;;;;;5071900;28;20021;-67
2024/03/12 11:19:24;;;;;;;11.65;7.07;;;10.20;91.60;;;;;;5076794;28;20056;-68
2024/03/12 11:21:59;;;;;;;9.82;5.60;;;10.20;91.50;;;;;;5075711;28;20043;-65
2024/03/12 11:24:29;;;;;;;7.78;4.32;;;10.20;91.40;;;;;;5081419;28;20020;-67
2024/03/12 11:27:00;;;;;;;11.73;6.65;;;10.30;91.40;;;;;;5071606;28;20468;-67
2024/03/12 11:30:08;;;;;;;11.05;5.70;;;10.30;91.40;;;;;;5074404;28;20078;-67
2024/03/12 11:32:49;;;;;;;12.82;6.22;;;10.30;91.30;;;;;;5090483;28;20528;-66
2024/03/12 11:35:18;;;;;;;10.70;6.20;;;10.40;91.30;;;;;;5082441;28;20170;-64
2024/03/12 11:37:59;;;;;;;10.50;5.82;;;10.40;91.20;;;;;;5073411;28;20107;-67
2024/03/12 11:40:26;;;;;;;7.75;4.70;;;10.50;91.20;;;;;;5071821;28;20397;-67
2024/03/12 11:42:54;;;;;;;11.63;6.07;;;10.50;91.10;;;;;;5079556;28;20020;-66
2024/03/12 11:45:46;;;;;;;8.98;5.05;;;10.50;91.10;;;;;;5077265;28;20036;-63
2024/03/12 11:48:18;;;;;;;7.40;4.05;;;10.50;91.10;;;;;;5082442;28;20031;-68
2024/03/12 11:50:58;;;;;;;8.40;4.60;;;10.50;91.10;;;;;;5080216;28;20028;-65
2024/03/12 11:53:28;;;;;;;7.35;4.25;;;10.50;91.10;;;;;;5073174;28;20082;-65
2024/03/12 11:56:05;;;;;;;9.20;4.38;;;10.50;91.10;;;;;;5076858;28;20119;-64
2024/03/12 11:58:33;;;;;;;9.98;4.95;;;10.50;91.10;;;;;;5075451;28;20029;-66
2024/03/12 12:00:59;;;;;;;7.55;4.47;;;10.50;91.10;;;;;;5072567;28;20020;-66
2024/03/12 12:03:25;;;;;;;8.52;4.50;;;10.50;91.10;;;;;;5077643;28;20025;-65
2024/03/12 12:05:52;;;;;;;6.47;3.95;;;10.50;91.10;;;;;;5074403;28;20039;-64
2024/03/12 12:08:18;;;;;;;10.90;5.03;;;10.50;91.10;;;;;;5068438;28;20055;-65
2024/03/12 12:11:09;;;;;;;8.52;4.50;;;10.50;91.00;;;;;;5079717;28;20418;-63
2024/03/12 12:13:35;;;;;;;8.82;4.40;;;10.50;91.00;;;;;;5081236;28;20024;-66
2024/03/12 12:16:05;;;;;;;8.02;4.70;;;10.60;91.00;;;;;;5076842;28;20119;-67
2024/03/12 12:18:35;;;;;;;8.23;4.90;;;10.70;91.00;;;;;;5085429;28;20081;-66
2024/03/12 12:21:03;;;;;;;12.50;7.10;;;10.70;90.90;;;;;;5068285;28;20025;-65
2024/03/12 12:23:29;;;;;;;10.45;6.15;;;10.80;90.80;;;;;;5076363;28;20051;-65
2024/03/12 12:25:57;;;;;;;14.43;7.80;;;10.90;90.70;;;;;;5077741;28;20024;-66
2024/03/12 12:28:26;;;;;;;11.82;6.65;;;11.10;90.60;;;;;;5083423;28;20036;-66
2024/03/12 12:31:00;;;;;;;14.23;7.68;;;11.20;90.70;;;;;;5078531;28;20012;-63
2024/03/12 12:33:28;;;;;;;12.68;7.57;;;11.30;90.20;;;;;;5075245;28;20086;-67
2024/03/12 12:36:05;;;;;;;11.75;6.57;;;11.40;90.10;;;;;;5075002;28;20380;-66
2024/03/12 12:38:36;;;;;;;11.40;6.35;;;11.30;90.00;;;;;;5077366;28;20079;-67
2024/03/12 12:41:02;;;;;;;8.88;4.85;;;11.30;90.00;;;;;;5069945;28;21070;-66
2024/03/12 12:43:32;;;;;;;14.25;7.50;;;11.30;90.00;;;;;;5078983;28;20024;-66
2024/03/12 12:45:59;;;;;;;12.32;6.93;;;11.20;90.00;;;;;;5069567;28;20043;-65
2024/03/12 12:48:27;;;;;;;18.05;10.00;;;11.20;90.00;;;;;;5072160;28;20048;-66
2024/03/12 12:50:54;;;;;;;21.60;10.38;;;11.10;89.80;;;;;;5078108;28;20097;-63
2024/03/12 12:53:21;;;;;;;16.80;9.38;;;11.10;89.70;;;;;;5066860;28;20028;-64
2024/03/12 12:55:53;;;;;;;16.92;8.75;;;11.10;89.70;;;;;;5077855;28;20150;-66
2024/03/12 12:58:24;;;;;;;13.48;7.50;;;11.10;89.70;;;;;;5066610;28;20399;-66
2024/03/12 13:01:06;;;;;;;11.75;6.30;;;11.10;89.70;;;;;;5069891;28;20028;-67